Duhring, West Virginia
Current Conditions -  °F | °C
As of 10:52 PM on Tuesday 21 Oct 2014 (Local Time) from KBLF Reporting Station
Overcast Overcast  
Wind Chill: 39°   Ceiling: 900
Heat Index: 44°   Visibility: 9mi
Dew Point: 39°   Wind: 10mph
Humidity: 82%   Direction: 300°WNW
Pressure: 30.05"   Gusts: 20mph
Location:  37.3892°N, 81.2383°W
Report Text: KBLF 220252Z AUTO 30009G17KT 9SM BKN009 OVC014 07/04 A3005 RMK AO2 CIG 006V011 SLP168 60000 T00670039 52007
Loading
Personal Weather Stations






























Interactive Weather Map
Tropical Storm Tracking
New forecast layout! Learn more

10-Day Weather Forecast

Advertisements
Track Severe Weather on mobile